Time;durP1;ratioP1;P1;durP2;ratioP2;P2;SDS_P1;SDS_P2;PMS_P1;PMS_P2;Temp;Humidity;BMP_temperature;BMP_pressure;BME280_temperature;BME280_humidity;BME280_pressure;Samples;Min_cycle;Max_cycle;Signal;HPM_P1;HPM_P2
2023/03/17 00:00:41;;;;;;;2.33;1.57;;;7.40;99.90;;;;;;5099417;28;20184;-58
2023/03/17 00:03:22;;;;;;;2.60;1.50;;;7.40;99.90;;;;;;5099304;28;20171;-55
2023/03/17 00:05:49;;;;;;;3.00;1.70;;;7.40;99.90;;;;;;5099525;28;20219;-56
2023/03/17 00:08:21;;;;;;;4.33;1.83;;;7.40;99.90;;;;;;5098720;28;20422;-53
2023/03/17 00:10:49;;;;;;;4.80;2.17;;;7.40;99.90;;;;;;5117287;28;20159;-56
2023/03/17 00:13:16;;;;;;;3.00;2.00;;;7.30;99.90;;;;;;5098180;28;20217;-58
2023/03/17 00:15:45;;;;;;;3.57;2.00;;;7.30;99.90;;;;;;5096024;28;20179;-56
2023/03/17 00:18:17;;;;;;;2.27;1.60;;;7.30;99.90;;;;;;5113910;28;20152;-56
2023/03/17 00:20:45;;;;;;;3.00;1.70;;;7.20;99.90;;;;;;5096700;28;20164;-57
2023/03/17 00:23:23;;;;;;;1.97;1.50;;;7.30;99.90;;;;;;5116005;28;20257;-56
2023/03/17 00:25:49;;;;;;;1.90;1.60;;;7.30;99.90;;;;;;5097495;28;20195;-51
2023/03/17 00:28:19;;;;;;;5.97;1.57;;;7.30;99.90;;;;;;5117215;28;20164;-53
2023/03/17 00:30:46;;;;;;;2.23;1.67;;;7.30;99.90;;;;;;5100315;28;20230;-52
2023/03/17 00:33:15;;;;;;;4.33;2.00;;;7.30;99.90;;;;;;5118535;28;20160;-52
2023/03/17 00:35:42;;;;;;;4.30;1.80;;;7.30;99.90;;;;;;5100775;28;20163;-54
2023/03/17 00:38:20;;;;;;;3.30;1.43;;;7.30;99.90;;;;;;5120554;28;20167;-62
2023/03/17 00:40:46;;;;;;;1.93;1.37;;;8.10;99.90;;;;;;5104545;28;20179;-62
2023/03/17 00:43:12;;;;;;;6.93;1.80;;;8.70;99.90;;;;;;5103986;28;20167;-62
2023/03/17 00:45:40;;;;;;;4.47;1.60;;;8.90;99.90;;;;;;5098678;28;20197;-52
2023/03/17 00:48:14;;;;;;;2.90;1.87;;;8.90;99.90;;;;;;5098318;28;20239;-53
2023/03/17 00:50:40;;;;;;;4.47;2.30;;;8.50;99.90;;;;;;5097980;28;20426;-57
2023/03/17 00:53:09;;;;;;;3.63;2.20;;;8.30;99.90;;;;;;5097353;28;20163;-52
2023/03/17 00:55:36;;;;;;;3.47;2.00;;;8.00;99.90;;;;;;5098296;28;20171;-51
2023/03/17 00:58:08;;;;;;;3.37;1.60;;;7.80;99.90;;;;;;5097776;28;20170;-54
2023/03/17 01:00:34;;;;;;;3.57;2.30;;;7.70;99.90;;;;;;5097475;28;20175;-50
2023/03/17 01:02:59;;;;;;;2.13;1.90;;;7.60;99.90;;;;;;5098070;28;20174;-51
2023/03/17 01:05:25;;;;;;;4.00;1.83;;;7.50;99.90;;;;;;5095099;28;20528;-52
2023/03/17 01:07:54;;;;;;;3.17;1.97;;;7.40;99.90;;;;;;5094238;28;20215;-53
2023/03/17 01:10:22;;;;;;;3.27;2.23;;;7.40;99.90;;;;;;5094794;28;20253;-55
2023/03/17 01:12:49;;;;;;;3.73;2.40;;;7.30;99.90;;;;;;5094472;28;20178;-50
2023/03/17 01:15:15;;;;;;;2.27;1.57;;;7.30;99.90;;;;;;5094417;28;20180;-54
2023/03/17 01:17:41;;;;;;;4.33;1.77;;;7.30;99.90;;;;;;5112980;28;20729;-51
2023/03/17 01:20:23;;;;;;;3.63;1.77;;;7.30;99.90;;;;;;5096169;28;20244;-53
2023/03/17 01:22:50;;;;;;;3.40;2.07;;;7.10;99.90;;;;;;5094104;28;20184;-55
2023/03/17 01:25:17;;;;;;;3.90;2.00;;;7.00;99.90;;;;;;5094410;28;20265;-52
2023/03/17 01:27:43;;;;;;;3.97;2.20;;;7.10;99.90;;;;;;5111574;28;20242;-51
2023/03/17 01:30:24;;;;;;;4.27;2.03;;;7.10;99.90;;;;;;5093993;28;20173;-51
2023/03/17 01:32:50;;;;;;;3.77;1.97;;;7.10;99.90;;;;;;5094662;28;20192;-52
2023/03/17 01:35:17;;;;;;;3.57;2.03;;;7.10;99.90;;;;;;5094519;28;20398;-55
2023/03/17 01:37:44;;;;;;;2.13;1.77;;;7.10;99.90;;;;;;5098592;28;20555;-52
2023/03/17 01:40:16;;;;;;;3.73;2.10;;;7.00;99.90;;;;;;5115403;28;20430;-50
2023/03/17 01:42:44;;;;;;;2.93;2.10;;;7.00;99.90;;;;;;5098926;28;20160;-49
2023/03/17 01:45:47;;;;;;;3.07;2.20;;;7.00;99.90;;;;;;5098712;28;20613;-56
2023/03/17 01:48:14;;;;;;;2.80;1.90;;;7.00;99.90;;;;;;5098006;28;20287;-55
2023/03/17 01:50:41;;;;;;;4.80;1.90;;;6.90;99.90;;;;;;5097641;28;20443;-52
2023/03/17 01:53:07;;;;;;;2.93;2.10;;;6.90;99.90;;;;;;5098081;28;20194;-52
2023/03/17 01:55:36;;;;;;;4.00;2.10;;;7.00;99.90;;;;;;5098377;28;20515;-55
2023/03/17 01:58:02;;;;;;;2.97;2.20;;;7.00;99.90;;;;;;5098467;28;20168;-57
2023/03/17 02:00:28;;;;;;;3.73;2.33;;;7.00;99.90;;;;;;5098169;28;20176;-55
2023/03/17 02:02:55;;;;;;;2.50;1.90;;;7.00;99.90;;;;;;5097830;28;20213;-56
2023/03/17 02:05:25;;;;;;;3.90;2.17;;;7.00;99.90;;;;;;5114207;28;20269;-54
2023/03/17 02:07:54;;;;;;;2.93;2.10;;;7.00;99.90;;;;;;5100825;28;20239;-56
2023/03/17 02:10:23;;;;;;;3.23;2.23;;;7.00;99.90;;;;;;5101616;28;20179;-56
2023/03/17 02:12:54;;;;;;;3.87;2.30;;;6.90;99.90;;;;;;5101334;28;20240;-56
2023/03/17 02:15:20;;;;;;;3.40;2.30;;;7.00;99.90;;;;;;5100846;28;20180;-52
2023/03/17 02:17:46;;;;;;;3.17;2.13;;;7.00;99.90;;;;;;5118617;28;20470;-57
2023/03/17 02:20:29;;;;;;;4.27;2.20;;;7.00;99.90;;;;;;5118557;28;20218;-53
2023/03/17 02:22:56;;;;;;;2.40;2.20;;;6.90;99.90;;;;;;5100872;28;20182;-52
2023/03/17 02:25:23;;;;;;;4.10;2.30;;;6.90;99.90;;;;;;5101328;28;20227;-55
2023/03/17 02:27:52;;;;;;;2.07;1.80;;;6.90;99.90;;;;;;5100604;28;20211;-57
2023/03/17 02:30:20;;;;;;;3.10;1.63;;;6.90;99.90;;;;;;5101715;28;20557;-55
2023/03/17 02:32:46;;;;;;;2.87;2.23;;;6.90;99.90;;;;;;5119291;28;20183;-55
2023/03/17 02:35:13;;;;;;;6.03;2.90;;;6.90;99.90;;;;;;5101560;28;20163;-57
2023/03/17 02:37:39;;;;;;;3.93;2.10;;;6.90;99.90;;;;;;5101431;28;20508;-55
2023/03/17 02:40:06;;;;;;;3.43;2.03;;;6.80;99.90;;;;;;5101376;28;20555;-54
2023/03/17 02:42:32;;;;;;;3.17;2.27;;;6.80;99.90;;;;;;5100949;28;20259;-52
2023/03/17 02:44:59;;;;;;;4.50;2.10;;;6.80;99.90;;;;;;5098474;28;20240;-54
2023/03/17 02:47:24;;;;;;;3.40;2.10;;;6.80;99.90;;;;;;5113499;28;20226;-52
2023/03/17 02:49:50;;;;;;;4.27;2.30;;;6.80;99.90;;;;;;5098872;28;20195;-53
2023/03/17 02:52:16;;;;;;;2.20;2.00;;;6.80;99.90;;;;;;5098266;28;20543;-53
2023/03/17 02:54:42;;;;;;;4.83;2.50;;;6.80;99.90;;;;;;5096760;28;20232;-53
2023/03/17 02:57:07;;;;;;;2.63;2.17;;;6.80;99.90;;;;;;5096789;28;20175;-54
2023/03/17 02:59:34;;;;;;;3.73;2.40;;;6.80;99.90;;;;;;5113343;28;20182;-55
2023/03/17 03:02:00;;;;;;;3.83;2.30;;;6.80;99.90;;;;;;5096579;28;20501;-51
2023/03/17 03:04:26;;;;;;;3.03;2.13;;;6.70;99.90;;;;;;5114878;28;20247;-55
2023/03/17 03:06:52;;;;;;;3.57;2.33;;;6.70;99.90;;;;;;5097119;28;20195;-50
2023/03/17 03:09:18;;;;;;;2.70;2.17;;;6.70;99.90;;;;;;5098337;28;20171;-52
2023/03/17 03:11:44;;;;;;;5.97;2.73;;;6.60;99.90;;;;;;5095589;28;20163;-56
2023/03/17 03:14:11;;;;;;;4.97;2.70;;;6.70;99.90;;;;;;5094801;28;20197;-54
2023/03/17 03:16:37;;;;;;;3.00;2.17;;;6.70;99.90;;;;;;5094121;28;20175;-50
2023/03/17 03:19:03;;;;;;;5.30;2.50;;;6.70;99.90;;;;;;5111542;28;20175;-51
2023/03/17 03:21:28;;;;;;;5.53;2.43;;;6.70;99.90;;;;;;5111527;28;20260;-53
2023/03/17 03:23:54;;;;;;;4.23;2.47;;;6.70;99.90;;;;;;5097094;28;20167;-52
2023/03/17 03:26:20;;;;;;;4.40;2.33;;;6.70;99.90;;;;;;5117777;28;20203;-56
2023/03/17 03:28:45;;;;;;;3.47;2.50;;;6.60;99.90;;;;;;5100398;28;20163;-54
2023/03/17 03:31:12;;;;;;;5.10;2.20;;;6.60;99.90;;;;;;5117125;28;20759;-51
2023/03/17 03:33:39;;;;;;;3.07;2.27;;;6.50;99.90;;;;;;5100681;28;20167;-52
2023/03/17 03:36:06;;;;;;;3.20;2.43;;;6.50;99.90;;;;;;5101651;28;20495;-53
2023/03/17 03:38:32;;;;;;;3.60;2.20;;;6.50;99.90;;;;;;5118036;28;20160;-52
2023/03/17 03:40:57;;;;;;;3.30;2.33;;;6.50;99.90;;;;;;5100493;28;20236;-55
2023/03/17 03:43:23;;;;;;;4.53;2.03;;;6.50;99.90;;;;;;5118415;28;20172;-52
2023/03/17 03:45:48;;;;;;;4.27;2.70;;;6.50;99.90;;;;;;5100381;28;20538;-52
2023/03/17 03:48:14;;;;;;;3.57;2.67;;;6.40;99.90;;;;;;5099876;28;20167;-55
2023/03/17 03:50:39;;;;;;;3.50;2.50;;;6.40;99.90;;;;;;5099990;28;20159;-56
2023/03/17 03:53:06;;;;;;;6.07;2.80;;;6.50;99.90;;;;;;5117461;28;20159;-54
2023/03/17 03:55:31;;;;;;;5.50;3.63;;;6.40;99.90;;;;;;5100284;28;20163;-56
2023/03/17 03:57:57;;;;;;;3.53;2.33;;;6.40;99.90;;;;;;5100415;28;20530;-57
2023/03/17 04:00:22;;;;;;;4.60;3.07;;;6.40;99.90;;;;;;5099445;28;20182;-53
2023/03/17 04:02:48;;;;;;;5.90;2.50;;;6.40;99.90;;;;;;5118118;28;20183;-54
2023/03/17 04:05:16;;;;;;;5.90;3.13;;;6.40;99.90;;;;;;5114293;28;20259;-54
2023/03/17 04:07:42;;;;;;;4.90;2.60;;;6.40;99.90;;;;;;5096251;28;20296;-56
2023/03/17 04:10:09;;;;;;;4.00;2.53;;;6.40;99.90;;;;;;5098196;28;20198;-54
2023/03/17 04:12:36;;;;;;;3.80;2.53;;;6.40;99.90;;;;;;5095663;28;20198;-54
2023/03/17 04:15:03;;;;;;;3.40;2.30;;;6.40;99.90;;;;;;5094921;28;20211;-51
2023/03/17 04:17:28;;;;;;;4.40;2.80;;;6.40;99.90;;;;;;5096214;28;20172;-52
2023/03/17 04:19:55;;;;;;;2.90;2.30;;;6.40;99.90;;;;;;5096659;28;20179;-55
2023/03/17 04:22:20;;;;;;;3.00;2.67;;;6.40;99.90;;;;;;5095866;28;20168;-55
2023/03/17 04:24:46;;;;;;;5.17;2.40;;;6.40;99.90;;;;;;5093131;28;20183;-52
2023/03/17 04:27:14;;;;;;;6.03;2.13;;;6.40;99.90;;;;;;5093294;28;20294;-51
2023/03/17 04:29:40;;;;;;;4.60;2.97;;;6.40;99.90;;;;;;5092509;28;20245;-57
2023/03/17 04:32:07;;;;;;;3.93;3.20;;;6.40;99.90;;;;;;5092015;28;20175;-57
2023/03/17 04:34:32;;;;;;;4.93;2.40;;;6.40;99.90;;;;;;5091289;28;20338;-55
2023/03/17 04:36:58;;;;;;;5.50;3.17;;;6.40;99.90;;;;;;5090677;28;20172;-52
2023/03/17 04:39:24;;;;;;;3.20;2.27;;;6.40;99.90;;;;;;5091109;28;20168;-56
2023/03/17 04:41:49;;;;;;;4.10;2.73;;;6.30;99.90;;;;;;5092534;28;20214;-54
2023/03/17 04:44:15;;;;;;;3.17;2.63;;;6.40;99.90;;;;;;5091330;28;20173;-50
2023/03/17 04:46:41;;;;;;;7.67;2.90;;;6.30;99.90;;;;;;5090968;28;20212;-53
2023/03/17 04:49:07;;;;;;;4.33;2.90;;;6.20;99.90;;;;;;5092284;28;20168;-56
2023/03/17 04:51:35;;;;;;;4.20;2.53;;;6.20;99.90;;;;;;5092556;28;20388;-53
2023/03/17 04:54:01;;;;;;;4.63;2.60;;;6.20;99.90;;;;;;5092474;28;20261;-53
2023/03/17 04:56:26;;;;;;;6.33;3.23;;;6.20;99.90;;;;;;5089708;28;20172;-52
2023/03/17 04:58:52;;;;;;;3.87;2.87;;;6.20;99.90;;;;;;5088022;28;20496;-52
2023/03/17 05:01:17;;;;;;;3.93;2.60;;;6.20;99.90;;;;;;5084949;28;20180;-50
2023/03/17 05:03:44;;;;;;;4.33;2.53;;;6.20;99.90;;;;;;5088068;28;20191;-57
2023/03/17 05:06:09;;;;;;;3.37;2.80;;;6.20;99.90;;;;;;5107270;28;20195;-52
2023/03/17 05:08:35;;;;;;;5.93;2.97;;;6.20;99.90;;;;;;5089644;28;20214;-52
2023/03/17 05:11:00;;;;;;;3.13;2.83;;;6.10;99.90;;;;;;5091352;28;20636;-52
2023/03/17 05:13:26;;;;;;;4.27;3.03;;;6.10;99.90;;;;;;5093627;28;20203;-52
2023/03/17 05:15:54;;;;;;;5.93;3.10;;;6.10;99.90;;;;;;5095171;28;20197;-53
2023/03/17 05:18:22;;;;;;;3.53;3.03;;;6.10;99.90;;;;;;5112532;28;20557;-50
2023/03/17 05:20:47;;;;;;;5.17;3.40;;;6.00;99.90;;;;;;5097428;28;20212;-49
2023/03/17 05:23:13;;;;;;;5.27;3.17;;;5.90;99.90;;;;;;5099250;28;20172;-51
2023/03/17 05:25:40;;;;;;;3.83;2.63;;;5.90;99.90;;;;;;5103127;28;20155;-54
2023/03/17 05:28:06;;;;;;;3.90;2.90;;;5.80;99.90;;;;;;5102294;28;20232;-55
2023/03/17 05:30:32;;;;;;;4.33;2.97;;;5.90;99.90;;;;;;5102548;28;20236;-50
2023/03/17 05:32:59;;;;;;;4.90;2.80;;;5.90;99.90;;;;;;5103005;28;20164;-53
2023/03/17 05:35:25;;;;;;;5.20;2.93;;;5.90;99.90;;;;;;5102917;28;20239;-50
2023/03/17 05:37:58;;;;;;;5.43;3.07;;;5.90;99.90;;;;;;5102567;28;20273;-56
2023/03/17 05:40:23;;;;;;;5.50;3.20;;;5.90;99.90;;;;;;5120259;28;20171;-56
2023/03/17 05:42:50;;;;;;;3.33;2.60;;;6.00;99.90;;;;;;5102145;28;20222;-53
2023/03/17 05:45:17;;;;;;;3.60;2.97;;;6.00;99.90;;;;;;5119831;28;20586;-50
2023/03/17 05:47:43;;;;;;;16.00;3.03;;;6.00;99.90;;;;;;5120565;28;20623;-55
2023/03/17 05:50:10;;;;;;;9.47;4.27;;;6.00;99.90;;;;;;5102122;28;20167;-52
2023/03/17 05:52:36;;;;;;;8.90;3.37;;;5.90;99.90;;;;;;5101852;28;20232;-54
2023/03/17 05:55:03;;;;;;;4.50;3.60;;;5.90;99.90;;;;;;5102491;28;20175;-55
2023/03/17 05:57:29;;;;;;;5.23;3.40;;;5.90;99.90;;;;;;5101916;28;20273;-53
2023/03/17 05:59:54;;;;;;;3.93;3.20;;;5.90;99.90;;;;;;5101628;28;20296;-50
2023/03/17 06:02:20;;;;;;;5.13;3.23;;;5.90;99.90;;;;;;5101351;28;20171;-54
2023/03/17 06:04:46;;;;;;;3.87;3.20;;;5.90;99.90;;;;;;5116544;28;20246;-53
2023/03/17 06:07:12;;;;;;;6.13;3.13;;;6.00;99.90;;;;;;5099007;28;20293;-54
2023/03/17 06:09:38;;;;;;;5.13;3.17;;;5.90;99.90;;;;;;5099522;28;20278;-53
2023/03/17 06:12:05;;;;;;;3.97;2.77;;;5.90;99.90;;;;;;5098909;28;20232;-51
2023/03/17 06:14:31;;;;;;;4.40;2.97;;;5.90;99.90;;;;;;5098315;28;20723;-52
2023/03/17 06:16:57;;;;;;;3.37;3.00;;;5.90;99.90;;;;;;5097439;28;20235;-53
2023/03/17 06:19:23;;;;;;;8.83;3.33;;;5.90;99.90;;;;;;5115475;28;20171;-50
2023/03/17 06:21:49;;;;;;;4.27;3.40;;;5.90;99.90;;;;;;5099699;28;20224;-55
2023/03/17 06:24:14;;;;;;;9.97;3.50;;;5.90;99.90;;;;;;5098350;28;20239;-53
2023/03/17 06:26:41;;;;;;;3.47;2.90;;;6.00;99.90;;;;;;5117676;28;20191;-49
2023/03/17 06:29:11;;;;;;;5.87;3.57;;;5.90;99.90;;;;;;5100374;28;20182;-53
2023/03/17 06:31:37;;;;;;;7.17;3.50;;;5.90;99.90;;;;;;5117452;28;20262;-52
2023/03/17 06:34:03;;;;;;;5.90;4.00;;;5.80;99.90;;;;;;5099113;28;20171;-53
2023/03/17 06:36:30;;;;;;;4.47;3.23;;;5.80;99.90;;;;;;5116555;28;20236;-54
2023/03/17 06:38:56;;;;;;;3.97;3.50;;;5.70;99.90;;;;;;5095889;28;20626;-54
2023/03/17 06:41:22;;;;;;;5.53;3.53;;;5.70;99.90;;;;;;5114034;28;20603;-56
2023/03/17 06:43:47;;;;;;;4.33;3.50;;;5.80;99.90;;;;;;5096490;28;20709;-53
2023/03/17 06:46:13;;;;;;;4.47;4.03;;;5.80;99.90;;;;;;5096335;28;20308;-56
2023/03/17 06:48:39;;;;;;;5.53;4.00;;;5.80;99.90;;;;;;5113821;28;20193;-56
2023/03/17 06:51:05;;;;;;;8.43;3.80;;;5.80;99.90;;;;;;5095584;28;20237;-55
2023/03/17 06:53:30;;;;;;;5.23;3.43;;;5.80;99.90;;;;;;5094083;28;20286;-56
2023/03/17 06:55:56;;;;;;;6.87;4.13;;;5.80;99.90;;;;;;5096016;28;20230;-53
2023/03/17 06:58:22;;;;;;;4.80;3.67;;;5.80;99.90;;;;;;5094914;28;20171;-55
2023/03/17 07:00:48;;;;;;;7.70;3.50;;;5.80;99.90;;;;;;5093759;28;20171;-55
2023/03/17 07:03:16;;;;;;;8.27;3.70;;;5.90;99.90;;;;;;5093370;28;20243;-52
2023/03/17 07:05:42;;;;;;;6.13;4.10;;;5.90;99.90;;;;;;5111316;28;20229;-54
2023/03/17 07:08:08;;;;;;;4.00;3.37;;;5.90;99.90;;;;;;5093724;28;20175;-54
2023/03/17 07:10:35;;;;;;;5.53;3.47;;;5.90;99.90;;;;;;5092988;28;20171;-53
2023/03/17 07:13:01;;;;;;;4.30;3.57;;;5.90;99.90;;;;;;5094127;28;20178;-55
2023/03/17 07:15:27;;;;;;;5.63;3.67;;;6.00;99.90;;;;;;5095144;28;20171;-51
2023/03/17 07:17:53;;;;;;;5.63;3.70;;;6.00;99.90;;;;;;5113621;28;20186;-53
2023/03/17 07:20:18;;;;;;;7.53;4.10;;;6.00;99.90;;;;;;5094793;28;20168;-55
2023/03/17 07:22:45;;;;;;;6.77;3.90;;;6.00;99.90;;;;;;5093820;28;20555;-55
2023/03/17 07:25:10;;;;;;;5.37;3.47;;;6.10;99.90;;;;;;5092740;28;20215;-56
2023/03/17 07:27:36;;;;;;;4.33;3.37;;;6.10;99.90;;;;;;5093017;28;20292;-51
2023/03/17 07:30:03;;;;;;;5.47;3.80;;;6.10;99.90;;;;;;5107459;28;20171;-52
2023/03/17 07:32:30;;;;;;;3.40;3.00;;;6.20;99.90;;;;;;5106527;28;20156;-54
2023/03/17 07:34:57;;;;;;;5.37;3.87;;;6.20;99.90;;;;;;5088022;28;20171;-56
2023/03/17 07:37:23;;;;;;;5.27;3.57;;;6.20;99.90;;;;;;5087460;28;20171;-52
2023/03/17 07:39:49;;;;;;;6.03;3.77;;;6.30;99.90;;;;;;5102834;28;20198;-55
2023/03/17 07:42:16;;;;;;;5.77;3.07;;;6.30;99.90;;;;;;5097499;28;20705;-52
2023/03/17 07:44:42;;;;;;;6.47;3.23;;;6.40;99.90;;;;;;5093693;28;20168;-52
2023/03/17 07:47:08;;;;;;;6.67;3.93;;;6.40;99.90;;;;;;5078785;28;20216;-55
2023/03/17 07:49:33;;;;;;;6.00;3.83;;;6.40;99.90;;;;;;5076964;28;20572;-52
2023/03/17 07:51:59;;;;;;;5.90;2.87;;;6.40;99.90;;;;;;5078056;28;20163;-50
2023/03/17 07:54:25;;;;;;;11.57;3.90;;;6.50;99.90;;;;;;5078479;28;20167;-51
2023/03/17 07:56:51;;;;;;;8.60;3.60;;;6.50;99.90;;;;;;5097091;28;20270;-56
2023/03/17 07:59:17;;;;;;;5.03;3.53;;;6.50;99.90;;;;;;5096256;28;20171;-53
2023/03/17 08:01:43;;;;;;;4.57;3.17;;;6.60;99.90;;;;;;5076694;28;20198;-57
2023/03/17 08:04:11;;;;;;;4.87;3.43;;;6.60;99.90;;;;;;5074957;28;20610;-57
2023/03/17 08:06:39;;;;;;;6.37;3.67;;;6.60;99.90;;;;;;5076266;28;20595;-51
2023/03/17 08:09:05;;;;;;;7.10;4.07;;;6.60;99.90;;;;;;5076061;28;20172;-55
2023/03/17 08:11:30;;;;;;;5.57;4.10;;;6.60;99.90;;;;;;5094779;28;20513;-56
2023/03/17 08:13:56;;;;;;;6.40;3.80;;;6.70;99.90;;;;;;5078355;28;20186;-55
2023/03/17 08:16:22;;;;;;;4.40;3.57;;;6.70;99.90;;;;;;5078994;28;20358;-53
2023/03/17 08:18:48;;;;;;;4.50;3.40;;;6.70;99.90;;;;;;5097607;28;20292;-51
2023/03/17 08:21:14;;;;;;;6.67;3.60;;;6.80;99.90;;;;;;5081895;28;20466;-54
2023/03/17 08:23:40;;;;;;;5.83;3.93;;;6.90;99.90;;;;;;5085659;28;20202;-57
2023/03/17 08:26:07;;;;;;;4.77;3.37;;;7.00;99.90;;;;;;5106404;28;20187;-52
2023/03/17 08:28:33;;;;;;;7.53;3.60;;;7.00;99.90;;;;;;5091407;28;20163;-51
2023/03/17 08:31:25;;;;;;;6.83;4.00;;;7.10;99.90;;;;;;5092113;28;20167;-55
2023/03/17 08:33:53;;;;;;;5.77;3.37;;;7.10;99.90;;;;;;5105596;28;20779;-56
2023/03/17 08:36:21;;;;;;;7.13;3.40;;;7.20;99.90;;;;;;5107612;28;20293;-53
2023/03/17 08:38:47;;;;;;;4.90;3.40;;;7.20;99.90;;;;;;5121548;27;20171;-51
2023/03/17 08:41:17;;;;;;;6.63;3.43;;;7.30;99.90;;;;;;5119911;27;20167;-50
2023/03/17 08:43:44;;;;;;;5.87;3.37;;;7.40;99.90;;;;;;5071605;28;20199;-55
2023/03/17 08:46:31;;;;;;;7.93;3.53;;;7.40;99.90;;;;;;5123963;27;20218;-57
2023/03/17 08:48:57;;;;;;;4.97;3.33;;;7.50;99.90;;;;;;5072669;28;20168;-53
2023/03/17 08:51:25;;;;;;;8.70;3.93;;;7.50;99.90;;;;;;5108118;28;20172;-54
2023/03/17 08:53:52;;;;;;;6.77;3.30;;;7.60;99.90;;;;;;5093968;28;20187;-55
2023/03/17 08:56:18;;;;;;;4.03;2.80;;;7.70;99.90;;;;;;5110548;28;20168;-55
2023/03/17 08:58:43;;;;;;;5.17;2.97;;;7.80;99.90;;;;;;5108782;28;20569;-54
2023/03/17 09:01:11;;;;;;;4.23;3.30;;;7.90;99.90;;;;;;5106900;28;20222;-55
2023/03/17 09:03:38;;;;;;;3.70;2.93;;;7.90;99.90;;;;;;5105159;28;20199;-54
2023/03/17 09:06:08;;;;;;;4.77;3.23;;;7.90;99.90;;;;;;5089419;28;20563;-53
2023/03/17 09:08:36;;;;;;;5.47;3.50;;;8.00;99.90;;;;;;5121097;27;20167;-54
2023/03/17 09:11:04;;;;;;;4.50;3.00;;;8.10;99.90;;;;;;5126599;27;20179;-56
2023/03/17 09:13:29;;;;;;;3.77;2.83;;;8.10;99.90;;;;;;5126582;27;20202;-56
2023/03/17 09:15:55;;;;;;;4.03;2.60;;;8.30;99.90;;;;;;5091621;28;20266;-54
2023/03/17 09:18:21;;;;;;;4.83;2.90;;;8.20;99.90;;;;;;5091610;28;20244;-53
2023/03/17 09:20:46;;;;;;;5.33;2.70;;;8.30;99.90;;;;;;5124350;27;20171;-57
2023/03/17 09:23:14;;;;;;;3.93;3.13;;;8.40;99.90;;;;;;5122559;27;20220;-57
2023/03/17 09:25:41;;;;;;;6.50;2.80;;;8.50;99.90;;;;;;5122141;27;20171;-55
2023/03/17 09:28:07;;;;;;;4.87;3.20;;;8.50;99.90;;;;;;5121029;27;20460;-57
2023/03/17 09:30:33;;;;;;;6.27;3.43;;;8.50;99.90;;;;;;5087083;28;20171;-56
2023/03/17 09:33:03;;;;;;;5.60;3.07;;;8.50;99.90;;;;;;5119103;27;20258;-53
2023/03/17 09:35:30;;;;;;;3.63;2.50;;;8.60;99.90;;;;;;5104667;28;20213;-54
2023/03/17 09:37:57;;;;;;;3.63;2.90;;;8.60;99.90;;;;;;5104677;28;20175;-53
2023/03/17 09:40:31;;;;;;;4.03;2.83;;;8.50;99.90;;;;;;5086787;28;20171;-53
2023/03/17 09:43:25;;;;;;;5.40;3.60;;;8.60;99.90;;;;;;5122166;27;20266;-53
2023/03/17 09:45:51;;;;;;;6.33;3.20;;;8.70;99.90;;;;;;5123832;27;20265;-55
2023/03/17 09:48:45;;;;;;;4.47;2.90;;;8.80;99.90;;;;;;5106722;28;20259;-56
2023/03/17 09:51:14;;;;;;;6.90;2.73;;;8.80;99.90;;;;;;5107675;28;20156;-57
2023/03/17 09:53:54;;;;;;;4.60;2.83;;;8.90;99.90;;;;;;5106150;27;20184;-53
2023/03/17 09:56:22;;;;;;;3.27;2.73;;;9.00;99.90;;;;;;5121214;27;20732;-54
2023/03/17 09:58:56;;;;;;;4.77;2.70;;;9.10;99.90;;;;;;5104247;28;20241;-56
2023/03/17 10:01:22;;;;;;;5.53;3.23;;;9.10;99.90;;;;;;5103720;28;20209;-56
2023/03/17 10:03:49;;;;;;;6.70;2.73;;;9.30;99.90;;;;;;5121519;27;20203;-55
2023/03/17 10:06:20;;;;;;;5.37;2.80;;;9.40;99.90;;;;;;5121761;27;20859;-57
2023/03/17 10:09:25;;;;;;;4.13;2.50;;;9.50;99.90;;;;;;5121106;27;20182;-55
2023/03/17 10:12:18;;;;;;;3.03;2.47;;;9.50;99.90;;;;;;5104827;28;20186;-57
2023/03/17 10:15:00;;;;;;;2.23;2.00;;;9.60;99.90;;;;;;5103229;28;20221;-52
2023/03/17 10:17:38;;;;;;;5.27;2.53;;;9.60;99.90;;;;;;5121497;27;20171;-56
2023/03/17 10:20:37;;;;;;;3.13;2.63;;;9.70;99.90;;;;;;5121131;27;20787;-56
2023/03/17 10:23:10;;;;;;;4.07;2.20;;;9.80;99.90;;;;;;5103980;28;20201;-57
2023/03/17 10:25:37;;;;;;;2.30;1.90;;;9.90;99.90;;;;;;5121554;27;20182;-52
2023/03/17 10:28:10;;;;;;;4.50;2.80;;;10.00;99.90;;;;;;5106159;28;20286;-55
2023/03/17 10:30:40;;;;;;;3.60;2.20;;;10.00;99.90;;;;;;5104242;28;20179;-58
2023/03/17 10:33:06;;;;;;;3.73;2.50;;;10.00;99.90;;;;;;5104302;28;20236;-56
2023/03/17 10:35:34;;;;;;;4.40;2.37;;;10.10;99.90;;;;;;5106457;28;20622;-55
2023/03/17 10:38:23;;;;;;;3.40;2.47;;;10.20;99.90;;;;;;5123901;27;20190;-58
2023/03/17 10:41:08;;;;;;;5.10;2.73;;;10.30;99.90;;;;;;5121651;27;20171;-58
2023/03/17 10:43:46;;;;;;;6.83;2.30;;;10.40;99.90;;;;;;5119291;27;20274;-57
2023/03/17 10:46:24;;;;;;;2.00;1.80;;;10.40;99.90;;;;;;5102892;28;20191;-56
2023/03/17 10:48:55;;;;;;;4.60;2.10;;;10.50;99.90;;;;;;5105458;28;20177;-58
2023/03/17 10:51:34;;;;;;;2.60;1.90;;;10.60;99.90;;;;;;5086549;28;20388;-56
2023/03/17 10:54:16;;;;;;;2.57;1.70;;;10.70;99.90;;;;;;5083932;28;20172;-57
2023/03/17 10:56:45;;;;;;;4.17;2.03;;;10.80;99.90;;;;;;5083862;28;20168;-58
2023/03/17 10:59:19;;;;;;;9.47;2.40;;;10.90;99.90;;;;;;5085150;28;20179;-63
2023/03/17 11:01:52;;;;;;;2.83;2.03;;;10.90;99.90;;;;;;5068626;28;20176;-63
2023/03/17 11:04:52;;;;;;;3.17;2.10;;;11.10;99.90;;;;;;5069373;28;20228;-63
2023/03/17 11:07:26;;;;;;;1.53;1.43;;;11.30;99.90;;;;;;5075730;28;20216;-64
2023/03/17 11:10:01;;;;;;;2.90;1.90;;;11.40;99.90;;;;;;5069917;28;20195;-63
2023/03/17 11:12:38;;;;;;;2.57;1.83;;;11.50;99.90;;;;;;5072288;28;20160;-63
2023/03/17 11:15:06;;;;;;;2.00;1.80;;;11.60;99.90;;;;;;5091483;28;20795;-64
2023/03/17 11:17:44;;;;;;;3.40;1.80;;;11.70;99.90;;;;;;5089129;28;20161;-63
2023/03/17 11:20:37;;;;;;;3.00;1.97;;;11.80;99.90;;;;;;5072550;28;20582;-63
2023/03/17 11:23:09;;;;;;;5.17;2.00;;;11.90;99.90;;;;;;5072617;28;20253;-56
2023/03/17 11:25:40;;;;;;;6.47;1.90;;;12.00;99.90;;;;;;5089591;28;20176;-57
2023/03/17 11:28:19;;;;;;;2.50;1.80;;;12.10;99.90;;;;;;5072303;28;20211;-56
2023/03/17 11:31:31;;;;;;;3.43;2.07;;;12.30;99.90;;;;;;5070191;28;20168;-57
2023/03/17 11:34:16;;;;;;;3.27;1.90;;;12.40;99.90;;;;;;5042740;28;20278;-53
2023/03/17 11:37:05;;;;;;;6.73;2.73;;;12.50;99.90;;;;;;5069979;28;20222;-53
2023/03/17 11:39:49;;;;;;;4.30;2.07;;;12.60;99.90;;;;;;5069102;28;20256;-55
2023/03/17 11:42:25;;;;;;;3.47;1.90;;;12.70;99.90;;;;;;5066618;28;20171;-54
2023/03/17 11:44:58;;;;;;;2.07;1.50;;;12.80;99.90;;;;;;5082990;28;20612;-52
2023/03/17 11:47:30;;;;;;;3.97;2.27;;;12.90;99.90;;;;;;5098262;28;20264;-57
2023/03/17 11:50:10;;;;;;;4.67;2.77;;;12.90;99.90;;;;;;5101437;28;20160;-55
2023/03/17 11:53:10;;;;;;;3.00;2.20;;;12.90;99.90;;;;;;5066734;28;20172;-56
2023/03/17 11:56:01;;;;;;;3.23;2.47;;;13.10;99.90;;;;;;5099119;28;20171;-56
2023/03/17 11:58:40;;;;;;;3.57;2.37;;;13.20;99.90;;;;;;5082846;28;20161;-53
2023/03/17 12:01:18;;;;;;;6.67;2.57;;;13.30;99.90;;;;;;5068092;28;20801;-56
2023/03/17 12:04:11;;;;;;;5.30;2.47;;;13.40;99.90;;;;;;5085077;28;20183;-51
2023/03/17 12:06:57;;;;;;;5.00;2.50;;;13.60;99.90;;;;;;5083532;28;20218;-54
2023/03/17 12:09:32;;;;;;;3.67;2.23;;;13.80;99.90;;;;;;5065052;28;20171;-56
2023/03/17 12:12:01;;;;;;;2.37;1.90;;;14.00;99.90;;;;;;5065103;28;20178;-53
2023/03/17 12:14:48;;;;;;;2.93;1.60;;;14.20;99.90;;;;;;5064720;28;20458;-54
2023/03/17 12:17:20;;;;;;;2.33;1.30;;;14.40;99.90;;;;;;5099058;28;20274;-56
2023/03/17 12:20:17;;;;;;;2.17;1.73;;;14.50;99.90;;;;;;5066355;28;20480;-51
2023/03/17 12:22:54;;;;;;;1.97;1.67;;;14.70;99.90;;;;;;5085288;28;20739;-52
2023/03/17 12:25:56;;;;;;;2.57;1.97;;;14.70;99.90;;;;;;5068593;28;20167;-55
2023/03/17 12:28:26;;;;;;;3.33;1.70;;;14.80;99.60;;;;;;5068914;28;20223;-55
2023/03/17 12:31:08;;;;;;;3.27;1.40;;;14.90;99.10;;;;;;5068529;28;20258;-54
2023/03/17 12:33:47;;;;;;;2.60;1.63;;;14.90;99.60;;;;;;5068048;28;20218;-55
2023/03/17 12:36:15;;;;;;;2.70;1.80;;;15.00;98.90;;;;;;5086350;28;20251;-55
2023/03/17 12:38:55;;;;;;;2.10;1.70;;;14.90;98.70;;;;;;5071396;28;20559;-56
2023/03/17 12:41:33;;;;;;;3.67;1.93;;;15.10;99.30;;;;;;5105809;28;20325;-53
2023/03/17 12:44:38;;;;;;;2.27;1.97;;;15.20;98.50;;;;;;5087428;28;20152;-53
2023/03/17 12:47:22;;;;;;;4.67;2.27;;;15.30;97.40;;;;;;5086175;28;20191;-55
2023/03/17 12:50:15;;;;;;;2.13;1.73;;;15.30;96.90;;;;;;5083076;28;20201;-54
2023/03/17 12:53:03;;;;;;;2.70;1.70;;;15.20;96.40;;;;;;5099101;28;20646;-52
2023/03/17 12:55:32;;;;;;;5.37;2.43;;;15.30;96.60;;;;;;5099737;28;20169;-54
2023/03/17 12:58:42;;;;;;;3.43;1.73;;;15.30;97.00;;;;;;5066996;28;20757;-53
2023/03/17 13:01:41;;;;;;;4.97;2.17;;;15.60;97.20;;;;;;5083142;28;20164;-56
2023/03/17 13:04:31;;;;;;;3.23;1.70;;;16.00;95.50;;;;;;5064286;28;20216;-53
2023/03/17 13:07:21;;;;;;;2.90;2.17;;;16.40;95.90;;;;;;5081286;28;20218;-57
2023/03/17 13:09:53;;;;;;;1.70;1.43;;;16.70;94.60;;;;;;5063801;28;20160;-56
2023/03/17 13:12:55;;;;;;;4.43;1.83;;;17.00;94.10;;;;;;5100121;28;20156;-54